Meteo

Ora Tempo Temperatura Umidità Vento Precipitazioni
09:00 nubi sparse 17.9° 73% 1.99 km/h 0 mm
12:00 nubi sparse 19.3° 65% 3.39 km/h 0 mm
15:00 cielo coperto 20.4° 58% 2.85 km/h 0 mm
18:00 cielo coperto 19.2° 68% 1.43 km/h 0 mm
21:00 cielo coperto 17.6° 70% 1.65 km/h 0 mm
Ora Tempo Temperatura Umidità Vento Precipitazioni
00:00 cielo coperto 17.7° 64% 1.95 km/h 0 mm
03:00 cielo coperto 17.0° 67% 4.7 km/h 0 mm
06:00 cielo coperto 17.5° 66% 4.01 km/h 0 mm
09:00 pioggia leggera 16.8° 76% 5.41 km/h 2.67 mm
12:00 cielo coperto 20.7° 58% 0.55 km/h 0 mm
15:00 poche nuvole 22.2° 50% 4.2 km/h 0 mm
18:00 cielo sereno 19.5° 59% 4.77 km/h 0 mm
21:00 cielo sereno 16.6° 56% 4.93 km/h 0 mm
Ora Tempo Temperatura Umidità Vento Precipitazioni
00:00 cielo sereno 14.9° 58% 5.07 km/h 0 mm
03:00 nubi sparse 13.5° 65% 3.82 km/h 0 mm
06:00 nubi sparse 15.4° 61% 3.34 km/h 0 mm
09:00 poche nuvole 20.0° 45% 1.01 km/h 0 mm
12:00 poche nuvole 20.9° 47% 4.43 km/h 0 mm
15:00 cielo sereno 20.5° 54% 5.59 km/h 0 mm
18:00 cielo sereno 19.3° 69% 3.8 km/h 0 mm
21:00 cielo sereno 17.2° 71% 1.85 km/h 0 mm
Ora Tempo Temperatura Umidità Vento Precipitazioni
00:00 cielo sereno 16.1° 70% 2.91 km/h 0 mm
03:00 cielo sereno 15.0° 66% 2.1 km/h 0 mm
06:00 cielo sereno 16.6° 55% 3.27 km/h 0 mm
09:00 cielo sereno 19.6° 50% 2.49 km/h 0 mm
12:00 cielo sereno 19.9° 59% 3.73 km/h 0 mm
15:00 cielo sereno 20.3° 58% 3.73 km/h 0 mm
18:00 cielo sereno 19.1° 68% 0.92 km/h 0 mm
21:00 cielo sereno 17.5° 70% 1.1 km/h 0 mm
Ora Tempo Temperatura Umidità Vento Precipitazioni
00:00 poche nuvole 16.2° 67% 2.6 km/h 0 mm
03:00 cielo coperto 15.4° 67% 2.23 km/h 0 mm
06:00 cielo coperto 17.1° 61% 2.77 km/h 0 mm
09:00 cielo coperto 19.8° 57% 2.82 km/h 0 mm
12:00 cielo coperto 20.3° 68% 4.88 km/h 0 mm
15:00 nubi sparse 20.0° 74% 3.8 km/h 0 mm
18:00 nubi sparse 18.6° 77% 1.42 km/h 0 mm
21:00 nubi sparse 17.3° 81% 0.76 km/h 0 mm
Ora Tempo Temperatura Umidità Vento Precipitazioni
00:00 nubi sparse 16.9° 80% 1.37 km/h 0 mm
03:00 poche nuvole 16.2° 82% 2.14 km/h 0 mm
06:00 nubi sparse 18.2° 73% 2.07 km/h 0 mm
Sabato 29 Maggio
Temp. max: 20.4°
Temp. min: 17.6°
Ora Tempo Temperatura Umidità Vento Precipitazioni
09:00 nubi sparse 17.9° 73% 1.99 km/h 0 mm
12:00 nubi sparse 19.3° 65% 3.39 km/h 0 mm
15:00 cielo coperto 20.4° 58% 2.85 km/h 0 mm
18:00 cielo coperto 19.2° 68% 1.43 km/h 0 mm
21:00 cielo coperto 17.6° 70% 1.65 km/h 0 mm
Domenica 30 Maggio
Temp. max: 22.2°
Temp. min: 16.6°
Ora Tempo Temperatura Umidità Vento Precipitazioni
00:00 cielo coperto 17.7° 64% 1.95 km/h 0 mm
03:00 cielo coperto 17.0° 67% 4.7 km/h 0 mm
06:00 cielo coperto 17.5° 66% 4.01 km/h 0 mm
09:00 pioggia leggera 16.8° 76% 5.41 km/h 2.67 mm
12:00 cielo coperto 20.7° 58% 0.55 km/h 0 mm
15:00 poche nuvole 22.2° 50% 4.2 km/h 0 mm
18:00 cielo sereno 19.5° 59% 4.77 km/h 0 mm
21:00 cielo sereno 16.6° 56% 4.93 km/h 0 mm
Lunedì 31 Maggio
Temp. max: 20.9°
Temp. min: 13.5°
Ora Tempo Temperatura Umidità Vento Precipitazioni
00:00 cielo sereno 14.9° 58% 5.07 km/h 0 mm
03:00 nubi sparse 13.5° 65% 3.82 km/h 0 mm
06:00 nubi sparse 15.4° 61% 3.34 km/h 0 mm
09:00 poche nuvole 20.0° 45% 1.01 km/h 0 mm
12:00 poche nuvole 20.9° 47% 4.43 km/h 0 mm
15:00 cielo sereno 20.5° 54% 5.59 km/h 0 mm
18:00 cielo sereno 19.3° 69% 3.8 km/h 0 mm
21:00 cielo sereno 17.2° 71% 1.85 km/h 0 mm
Martedì 01 Giugno
Temp. max: 20.3°
Temp. min: 15.0°
Ora Tempo Temperatura Umidità Vento Precipitazioni
00:00 cielo sereno 16.1° 70% 2.91 km/h 0 mm
03:00 cielo sereno 15.0° 66% 2.1 km/h 0 mm
06:00 cielo sereno 16.6° 55% 3.27 km/h 0 mm
09:00 cielo sereno 19.6° 50% 2.49 km/h 0 mm
12:00 cielo sereno 19.9° 59% 3.73 km/h 0 mm
15:00 cielo sereno 20.3° 58% 3.73 km/h 0 mm
18:00 cielo sereno 19.1° 68% 0.92 km/h 0 mm
21:00 cielo sereno 17.5° 70% 1.1 km/h 0 mm
Mercoledì 02 Giugno
Temp. max: 20.3°
Temp. min: 15.4°
Ora Tempo Temperatura Umidità Vento Precipitazioni
00:00 poche nuvole 16.2° 67% 2.6 km/h 0 mm
03:00 cielo coperto 15.4° 67% 2.23 km/h 0 mm
06:00 cielo coperto 17.1° 61% 2.77 km/h 0 mm
09:00 cielo coperto 19.8° 57% 2.82 km/h 0 mm
12:00 cielo coperto 20.3° 68% 4.88 km/h 0 mm
15:00 nubi sparse 20.0° 74% 3.8 km/h 0 mm
18:00 nubi sparse 18.6° 77% 1.42 km/h 0 mm
21:00 nubi sparse 17.3° 81% 0.76 km/h 0 mm
Giovedì 03 Giugno
Temp. max: 18.2°
Temp. min: 16.2°
Ora Tempo Temperatura Umidità Vento Precipitazioni
00:00 nubi sparse 16.9° 80% 1.37 km/h 0 mm
03:00 poche nuvole 16.2° 82% 2.14 km/h 0 mm
06:00 nubi sparse 18.2° 73% 2.07 km/h 0 mm

Live Cam

VUOI RICEVERE PIÚ INFORMAZIONI SUI NOSTRI SERVIZI?

Usa la form di contatti sul sito o contattaci telefonicamente